首页
METAR-TAF:

METAR-TAF

机场 :

哈尔滨太平国际机场

哈尔滨, 中华人民共和国

纬度: 45-45N, 经度: 126-46E, 海拔: 143米

当前天气观测

该预报发布于41分钟前的18:00 UTC
风速4节,风向北转西北
温度 14°C
湿度 94%
气压 1007 hPa
能见度10公里或以上
1500米以下无云,无积雨云

METAR: ZYHB 041800Z 33002MPS CAVOK 14/13 Q1007 NOSIG

时间: 02:41 (18:41 UTC)

预报

该预报发布于3小时和38分钟前的15:03 UTC
预报有效从04日的 18点(UTC)到 05日的 18点(UTC)
风速8节,风向
能見度: 6000
散云层高于2600英尺

TAF: ZYHB 041503Z 0418/0518 35004MPS 6000 SCT026 TX25/0506Z TN10/0420Z

超过4000个机场的气象观测和天气预报(METAR&TAF报告)。

可查询的气象台以黄色和红色小点在地图上表示。

将鼠标移到小点上方,可查看气象台名称。

然后点击查看天气观测和预报。

如需切换地图:点击带黑十字的绿色按钮放大地图;点击带横线的绿色按钮缩小地图;或者点击绿色箭头查看邻近地区的地图。


METAR-TAF: